createdAt,value
2023-05-25T00:00:10.542Z,100.00
2023-05-25T00:02:37.840Z,100.00
2023-05-25T00:05:04.877Z,92.60
2023-05-25T00:07:31.277Z,92.90
2023-05-25T00:09:57.681Z,91.45
2023-05-25T00:12:24.324Z,87.94
2023-05-25T00:14:50.782Z,61.15
2023-05-25T00:17:18.714Z,60.57
2023-05-25T00:19:46.107Z,59.34
2023-05-25T00:22:12.520Z,57.82
2023-05-25T00:24:39.617Z,57.46
2023-05-25T00:27:07.211Z,60.59
2023-05-25T00:29:35.986Z,59.68
2023-05-25T00:32:03.026Z,57.89
2023-05-25T00:34:29.751Z,57.49
2023-05-25T00:36:56.192Z,58.38
2023-05-25T00:39:22.668Z,57.98
2023-05-25T00:41:49.295Z,57.72
2023-05-25T00:44:16.587Z,58.29
2023-05-25T00:46:51.051Z,58.92
2023-05-25T00:49:23.216Z,60.28
2023-05-25T00:51:49.797Z,61.14
2023-05-25T00:54:16.583Z,62.19
2023-05-25T00:56:56.692Z,61.84
2023-05-25T00:59:41.296Z,62.51
2023-05-25T01:02:09.759Z,62.36
2023-05-25T01:04:41.705Z,61.56
2023-05-25T01:07:08.874Z,64.36
2023-05-25T01:09:35.944Z,58.45
2023-05-25T01:12:02.617Z,55.01
2023-05-25T01:14:29.293Z,52.12
2023-05-25T01:16:56.454Z,55.98
2023-05-25T01:19:22.943Z,53.99
2023-05-25T01:21:55.672Z,53.69
2023-05-25T01:24:33.542Z,53.57
2023-05-25T01:27:10.802Z,54.49
2023-05-25T01:29:37.340Z,55.56
2023-05-25T01:32:03.960Z,52.14
2023-05-25T01:34:31.270Z,53.10
2023-05-25T01:36:57.821Z,56.07
2023-05-25T01:39:24.299Z,56.66
2023-05-25T01:41:50.798Z,57.15
2023-05-25T01:44:17.255Z,58.01
2023-05-25T01:46:43.745Z,58.59
2023-05-25T01:49:36.584Z,56.30
2023-05-25T01:52:28.835Z,55.83
2023-05-25T01:54:59.641Z,58.41
2023-05-25T01:57:26.044Z,60.64
2023-05-25T01:59:52.985Z,60.87
2023-05-25T02:02:19.844Z,61.19
2023-05-25T02:04:46.805Z,59.30
2023-05-25T02:07:13.320Z,59.54
2023-05-25T02:09:40.062Z,60.40
2023-05-25T02:12:06.629Z,62.07
2023-05-25T02:14:33.070Z,64.37
2023-05-25T02:17:02.138Z,68.25
2023-05-25T02:19:29.261Z,71.17
2023-05-25T02:21:55.724Z,74.17
2023-05-25T02:24:24.712Z,75.51
2023-05-25T02:26:51.675Z,79.88
2023-05-25T02:29:18.260Z,85.72
2023-05-25T02:31:44.842Z,90.24
2023-05-25T02:34:11.762Z,91.18
2023-05-25T02:36:39.460Z,94.27
2023-05-25T02:39:06.095Z,95.55
2023-05-25T02:41:32.494Z,94.91
2023-05-25T02:43:59.384Z,93.05
2023-05-25T02:46:26.221Z,92.14
2023-05-25T02:48:52.686Z,89.57
2023-05-25T02:51:19.108Z,89.36
2023-05-25T02:53:45.608Z,94.43
2023-05-25T02:56:12.231Z,96.46
2023-05-25T02:58:38.754Z,100.00
2023-05-25T03:01:05.996Z,100.00
2023-05-25T03:03:32.465Z,100.00
2023-05-25T03:05:58.974Z,100.00
2023-05-25T03:08:25.623Z,100.00
2023-05-25T03:10:52.069Z,100.00
2023-05-25T03:13:18.463Z,100.00
2023-05-25T03:15:45.251Z,100.00
2023-05-25T03:18:11.954Z,100.00
2023-05-25T03:20:38.578Z,100.00
2023-05-25T03:23:05.080Z,100.00
2023-05-25T03:25:31.503Z,100.00
2023-05-25T03:27:57.969Z,100.00
2023-05-25T03:30:24.396Z,100.00
2023-05-25T03:32:50.934Z,100.00
2023-05-25T03:35:17.473Z,100.00
2023-05-25T03:37:43.931Z,100.00
2023-05-25T03:40:11.784Z,100.00
2023-05-25T03:42:38.390Z,100.00
2023-05-25T03:45:06.360Z,100.00
2023-05-25T03:47:33.104Z,100.00
2023-05-25T03:49:59.609Z,100.00
2023-05-25T03:52:26.054Z,100.00
2023-05-25T03:54:52.485Z,100.00
2023-05-25T03:57:18.914Z,100.00
2023-05-25T03:59:45.473Z,100.00
2023-05-25T04:02:11.906Z,100.00
2023-05-25T04:04:41.679Z,100.00
2023-05-25T04:07:08.533Z,100.00
2023-05-25T04:09:34.959Z,100.00
2023-05-25T04:12:02.291Z,100.00
2023-05-25T04:14:29.144Z,100.00
2023-05-25T04:16:55.764Z,100.00
2023-05-25T04:19:22.232Z,100.00
2023-05-25T04:21:48.744Z,100.00
2023-05-25T04:24:15.132Z,100.00
2023-05-25T04:26:41.595Z,100.00
2023-05-25T04:29:09.870Z,100.00
2023-05-25T04:31:36.398Z,100.00
2023-05-25T04:34:05.718Z,100.00
2023-05-25T04:36:35.304Z,100.00
2023-05-25T04:39:04.444Z,100.00
2023-05-25T04:41:30.965Z,100.00
2023-05-25T04:44:09.161Z,100.00
2023-05-25T04:46:39.392Z,100.00
2023-05-25T04:49:06.205Z,100.00
2023-05-25T04:51:32.872Z,100.00
2023-05-25T04:53:59.792Z,100.00
2023-05-25T04:56:26.662Z,100.00
2023-05-25T04:58:53.344Z,100.00
2023-05-25T05:01:24.086Z,100.00
2023-05-25T05:03:50.694Z,100.00
2023-05-25T05:06:17.837Z,100.00
2023-05-25T05:08:44.255Z,100.00
2023-05-25T05:11:10.738Z,100.00
2023-05-25T05:13:37.133Z,100.00
2023-05-25T05:16:03.691Z,100.00
2023-05-25T05:18:30.740Z,100.00
2023-05-25T05:20:57.289Z,100.00
2023-05-25T05:23:23.692Z,100.00
2023-05-25T05:25:50.298Z,100.00
2023-05-25T05:28:16.750Z,100.00
2023-05-25T05:30:46.441Z,100.00
2023-05-25T05:33:14.200Z,100.00
2023-05-25T05:35:40.715Z,100.00
2023-05-25T05:38:07.319Z,100.00
2023-05-25T05:40:34.036Z,100.00
2023-05-25T05:43:00.647Z,100.00
2023-05-25T05:45:27.066Z,100.00
2023-05-25T05:47:53.545Z,100.00
2023-05-25T05:50:20.111Z,100.00
2023-05-25T05:52:46.983Z,100.00
2023-05-25T05:55:13.510Z,100.00
2023-05-25T05:57:39.934Z,100.00
2023-05-25T06:00:07.410Z,100.00
2023-05-25T06:02:34.068Z,100.00
2023-05-25T06:05:01.588Z,100.00
2023-05-25T06:07:28.998Z,100.00
2023-05-25T06:09:56.080Z,100.00
2023-05-25T06:12:22.526Z,100.00
2023-05-25T06:14:50.613Z,100.00
2023-05-25T06:17:17.221Z,100.00
2023-05-25T06:19:43.663Z,100.00
2023-05-25T06:22:10.078Z,100.00
2023-05-25T06:24:36.721Z,100.00
2023-05-25T06:27:03.668Z,100.00
2023-05-25T06:29:30.200Z,100.00
2023-05-25T06:31:56.859Z,100.00
2023-05-25T06:34:23.680Z,100.00
2023-05-25T06:36:50.100Z,100.00
2023-05-25T06:39:16.751Z,100.00
2023-05-25T06:41:43.210Z,100.00
2023-05-25T06:44:09.702Z,100.00
2023-05-25T06:46:36.575Z,100.00
2023-05-25T06:49:03.519Z,100.00
2023-05-25T06:51:29.929Z,100.00
2023-05-25T06:53:57.111Z,100.00
2023-05-25T06:56:23.670Z,100.00
2023-05-25T06:58:50.661Z,100.00
2023-05-25T07:01:17.446Z,100.00
2023-05-25T07:03:43.909Z,100.00
2023-05-25T07:06:12.156Z,100.00
2023-05-25T07:08:38.855Z,100.00
2023-05-25T07:11:05.433Z,100.00
2023-05-25T07:13:31.863Z,100.00
2023-05-25T07:15:58.330Z,100.00
2023-05-25T07:18:24.892Z,100.00
2023-05-25T07:20:51.503Z,100.00
2023-05-25T07:23:17.998Z,100.00
2023-05-25T07:25:44.747Z,100.00
2023-05-25T07:28:11.425Z,100.00
2023-05-25T07:30:37.887Z,100.00
2023-05-25T07:33:04.407Z,100.00
2023-05-25T07:35:30.935Z,100.00
2023-05-25T07:38:01.461Z,100.00
2023-05-25T07:40:28.246Z,100.00
2023-05-25T07:42:54.746Z,100.00
2023-05-25T07:45:21.480Z,100.00
2023-05-25T07:47:47.988Z,100.00
2023-05-25T07:50:15.051Z,100.00
2023-05-25T07:52:41.801Z,100.00
2023-05-25T07:55:08.864Z,100.00
2023-05-25T07:57:35.522Z,100.00
2023-05-25T08:00:02.158Z,100.00
2023-05-25T08:02:28.682Z,99.97
2023-05-25T08:04:55.248Z,100.00
2023-05-25T08:07:22.057Z,100.00
2023-05-25T08:09:48.462Z,99.14
2023-05-25T08:12:34.332Z,95.49
2023-05-25T08:15:01.313Z,96.80
2023-05-25T08:17:27.797Z,96.06
2023-05-25T08:19:54.727Z,91.34
2023-05-25T08:22:21.252Z,88.60
2023-05-25T08:24:47.676Z,88.73
2023-05-25T08:27:14.140Z,85.61
2023-05-25T08:29:40.769Z,83.66
2023-05-25T08:32:07.518Z,85.91
2023-05-25T08:34:34.188Z,84.42
2023-05-25T08:37:00.717Z,81.45
2023-05-25T08:39:27.430Z,73.04
2023-05-25T08:41:53.942Z,75.58
2023-05-25T08:44:21.043Z,74.85
2023-05-25T08:46:48.307Z,70.05
2023-05-25T08:49:15.317Z,69.66
2023-05-25T08:51:50.816Z,69.07
2023-05-25T08:54:18.949Z,67.22
2023-05-25T08:56:53.055Z,66.96
2023-05-25T08:59:32.114Z,66.57
2023-05-25T09:02:45.308Z,65.07
2023-05-25T09:05:11.864Z,63.67
2023-05-25T09:07:38.296Z,64.15
2023-05-25T09:10:05.178Z,64.07
2023-05-25T09:12:31.727Z,62.82
2023-05-25T09:14:58.886Z,61.85
2023-05-25T09:17:25.486Z,62.81
2023-05-25T09:19:52.012Z,63.50
2023-05-25T09:22:18.441Z,61.70
2023-05-25T09:24:45.563Z,60.69
2023-05-25T09:27:13.007Z,59.75
2023-05-25T09:29:39.456Z,54.52
2023-05-25T09:32:06.799Z,54.19
2023-05-25T09:34:36.352Z,53.88
2023-05-25T09:37:14.431Z,54.39
2023-05-25T09:39:44.545Z,55.74
2023-05-25T09:42:11.581Z,55.22
2023-05-25T09:44:38.686Z,54.94
2023-05-25T09:47:05.499Z,54.61
2023-05-25T09:49:31.953Z,56.14
2023-05-25T09:51:58.399Z,53.82
2023-05-25T09:54:24.962Z,55.49
2023-05-25T09:56:51.666Z,54.79
2023-05-25T09:59:18.294Z,52.88
2023-05-25T10:01:44.921Z,51.11
2023-05-25T10:04:11.452Z,47.10
2023-05-25T10:06:39.084Z,46.69
2023-05-25T10:09:06.779Z,46.35
2023-05-25T10:11:34.041Z,45.98
2023-05-25T10:14:04.058Z,46.51
2023-05-25T10:16:30.525Z,45.53
2023-05-25T10:19:21.860Z,46.57
2023-05-25T10:21:55.937Z,52.14
2023-05-25T10:24:39.133Z,52.91
2023-05-25T10:27:15.000Z,64.14
2023-05-25T10:29:52.484Z,60.36
2023-05-25T10:32:20.032Z,66.61
2023-05-25T10:34:46.539Z,66.46
2023-05-25T10:37:13.350Z,69.28
2023-05-25T10:39:39.846Z,75.79
2023-05-25T10:42:06.556Z,74.39
2023-05-25T10:44:33.168Z,80.91
2023-05-25T10:46:59.643Z,82.75
2023-05-25T10:49:32.399Z,86.99
2023-05-25T10:51:59.833Z,100.00
2023-05-25T10:54:34.885Z,100.00
2023-05-25T10:57:34.124Z,100.00
2023-05-25T11:00:06.012Z,100.00
2023-05-25T11:02:53.706Z,100.00
2023-05-25T11:05:31.193Z,100.00
2023-05-25T11:07:58.711Z,100.00
2023-05-25T11:10:44.337Z,100.00
2023-05-25T11:13:37.931Z,100.00
2023-05-25T11:16:22.750Z,100.00
2023-05-25T11:18:59.237Z,100.00
2023-05-25T11:21:32.226Z,100.00
2023-05-25T11:24:14.654Z,100.00
2023-05-25T11:27:01.469Z,100.00
2023-05-25T11:29:30.733Z,100.00
2023-05-25T11:31:57.204Z,100.00
2023-05-25T11:34:28.002Z,100.00
2023-05-25T11:36:56.064Z,100.00
2023-05-25T11:39:25.403Z,100.00
2023-05-25T11:41:58.908Z,100.00
2023-05-25T11:44:36.185Z,100.00
2023-05-25T11:47:08.329Z,100.00
2023-05-25T11:49:35.626Z,100.00
2023-05-25T11:52:05.004Z,100.00
2023-05-25T11:54:31.605Z,100.00
2023-05-25T11:56:59.893Z,100.00
2023-05-25T11:59:29.466Z,100.00
2023-05-25T12:02:02.262Z,100.00
2023-05-25T12:04:29.584Z,100.00
2023-05-25T12:07:06.012Z,100.00
2023-05-25T12:09:32.619Z,100.00
2023-05-25T12:11:59.224Z,100.00
2023-05-25T12:14:25.948Z,100.00
2023-05-25T12:16:52.572Z,100.00
2023-05-25T12:19:19.026Z,100.00
2023-05-25T12:21:45.489Z,100.00
2023-05-25T12:24:12.791Z,100.00
2023-05-25T12:26:49.349Z,100.00
2023-05-25T12:29:16.009Z,100.00
2023-05-25T12:31:42.479Z,100.00
2023-05-25T12:34:10.941Z,100.00
2023-05-25T12:36:47.797Z,100.00
2023-05-25T12:39:15.871Z,100.00
2023-05-25T12:41:46.437Z,100.00
2023-05-25T12:44:37.368Z,100.00
2023-05-25T12:47:20.731Z,100.00
2023-05-25T12:49:48.316Z,100.00
2023-05-25T12:52:37.626Z,100.00
2023-05-25T12:55:22.543Z,100.00
2023-05-25T12:57:54.957Z,100.00
2023-05-25T13:00:23.582Z,100.00
2023-05-25T13:02:50.972Z,100.00
2023-05-25T13:05:25.392Z,100.00
2023-05-25T13:07:53.096Z,100.00
2023-05-25T13:10:19.667Z,100.00
2023-05-25T13:12:47.587Z,100.00
2023-05-25T13:15:23.917Z,100.00
2023-05-25T13:17:51.050Z,100.00
2023-05-25T13:20:19.074Z,100.00
2023-05-25T13:22:46.473Z,100.00
2023-05-25T13:25:13.597Z,100.00
2023-05-25T13:27:50.415Z,100.00
2023-05-25T13:30:17.192Z,100.00
2023-05-25T13:32:44.282Z,100.00
2023-05-25T13:35:19.370Z,100.00
2023-05-25T13:37:46.176Z,100.00
2023-05-25T13:40:13.449Z,100.00
2023-05-25T13:42:39.928Z,100.00
2023-05-25T13:45:07.030Z,100.00
2023-05-25T13:47:33.538Z,100.00
2023-05-25T13:50:00.043Z,100.00
2023-05-25T13:52:27.397Z,100.00
2023-05-25T13:54:54.212Z,100.00
2023-05-25T13:57:22.460Z,100.00
2023-05-25T13:59:48.934Z,100.00
2023-05-25T14:02:15.496Z,100.00
2023-05-25T14:04:42.163Z,100.00
2023-05-25T14:07:08.696Z,100.00
2023-05-25T14:09:35.552Z,100.00
2023-05-25T14:12:02.973Z,100.00
2023-05-25T14:14:32.120Z,100.00
2023-05-25T14:17:00.324Z,100.00
2023-05-25T14:19:26.987Z,100.00
2023-05-25T14:22:11.204Z,100.00
2023-05-25T14:24:39.539Z,100.00
2023-05-25T14:27:07.233Z,100.00
2023-05-25T14:29:33.901Z,100.00
2023-05-25T14:32:00.413Z,100.00
2023-05-25T14:34:26.928Z,100.00
2023-05-25T14:36:53.362Z,100.00
2023-05-25T14:39:19.802Z,100.00
2023-05-25T14:41:46.206Z,100.00
2023-05-25T14:44:12.618Z,100.00
2023-05-25T14:46:39.246Z,100.00
2023-05-25T14:49:05.782Z,100.00
2023-05-25T14:51:33.519Z,100.00
2023-05-25T14:54:03.455Z,100.00
2023-05-25T14:56:29.860Z,100.00
2023-05-25T14:58:56.270Z,100.00
2023-05-25T15:01:25.206Z,100.00
2023-05-25T15:03:52.204Z,100.00
2023-05-25T15:06:18.859Z,100.00
2023-05-25T15:08:45.342Z,100.00
2023-05-25T15:11:11.778Z,100.00
2023-05-25T15:13:38.198Z,100.00
2023-05-25T15:16:05.157Z,100.00
2023-05-25T15:18:31.612Z,100.00
2023-05-25T15:20:58.109Z,97.91
2023-05-25T15:23:24.568Z,98.51
2023-05-25T15:25:51.038Z,95.39
2023-05-25T15:28:17.528Z,96.14
2023-05-25T15:30:44.015Z,93.04
2023-05-25T15:33:10.482Z,92.05
2023-05-25T15:35:36.931Z,92.26
2023-05-25T15:38:03.475Z,91.54
2023-05-25T15:40:29.931Z,91.71
2023-05-25T15:42:56.353Z,89.31
2023-05-25T15:45:22.869Z,90.21
2023-05-25T15:47:50.431Z,88.52
2023-05-25T15:50:17.087Z,85.24
2023-05-25T15:52:43.609Z,85.89
2023-05-25T15:55:10.590Z,87.23
2023-05-25T15:57:37.004Z,89.37
2023-05-25T16:00:05.714Z,87.73
2023-05-25T16:02:32.601Z,85.86
2023-05-25T16:04:59.094Z,87.35
2023-05-25T16:07:25.636Z,84.99
2023-05-25T16:09:52.030Z,84.00
2023-05-25T16:12:18.512Z,82.83
2023-05-25T16:14:45.163Z,84.10
2023-05-25T16:17:11.906Z,84.40
2023-05-25T16:19:38.368Z,83.40
2023-05-25T16:22:04.985Z,84.53
2023-05-25T16:24:31.399Z,84.30
2023-05-25T16:26:57.920Z,83.09
2023-05-25T16:29:24.418Z,83.56
2023-05-25T16:31:50.832Z,86.42
2023-05-25T16:34:17.348Z,85.08
2023-05-25T16:36:43.787Z,83.58
2023-05-25T16:39:11.679Z,82.10
2023-05-25T16:41:38.176Z,84.35
2023-05-25T16:44:04.621Z,87.46
2023-05-25T16:46:31.175Z,88.53
2023-05-25T16:48:57.770Z,90.73
2023-05-25T16:51:24.448Z,91.96
2023-05-25T16:53:52.516Z,92.59
2023-05-25T16:56:21.433Z,92.33
2023-05-25T16:58:47.888Z,94.05
2023-05-25T17:01:14.354Z,94.35
2023-05-25T17:03:41.161Z,94.33
2023-05-25T17:06:08.071Z,93.56
2023-05-25T17:08:36.220Z,95.83
2023-05-25T17:11:02.678Z,100.00
2023-05-25T17:13:29.208Z,100.00
2023-05-25T17:15:55.711Z,100.00
2023-05-25T17:18:22.271Z,100.00
2023-05-25T17:20:48.943Z,100.00
2023-05-25T17:23:18.257Z,100.00
2023-05-25T17:25:45.111Z,100.00
2023-05-25T17:28:11.813Z,100.00
2023-05-25T17:30:38.217Z,100.00
2023-05-25T17:33:04.836Z,100.00
2023-05-25T17:35:31.587Z,100.00
2023-05-25T17:37:58.061Z,100.00
2023-05-25T17:40:24.494Z,100.00
2023-05-25T17:42:50.927Z,100.00
2023-05-25T17:45:17.393Z,100.00
2023-05-25T17:47:43.891Z,100.00
2023-05-25T17:50:10.707Z,100.00
2023-05-25T17:52:37.130Z,100.00
2023-05-25T17:55:04.510Z,100.00
2023-05-25T17:57:31.191Z,100.00
2023-05-25T17:59:57.631Z,100.00
2023-05-25T18:02:24.270Z,100.00
2023-05-25T18:04:50.992Z,100.00
2023-05-25T18:07:17.927Z,100.00
2023-05-25T18:09:44.332Z,100.00
2023-05-25T18:12:10.933Z,100.00
2023-05-25T18:14:37.790Z,100.00
2023-05-25T18:17:04.391Z,100.00
2023-05-25T18:19:30.867Z,100.00
2023-05-25T18:21:57.406Z,100.00
2023-05-25T18:24:23.840Z,100.00
2023-05-25T18:26:50.550Z,100.00
2023-05-25T18:29:16.988Z,100.00
2023-05-25T18:31:46.379Z,100.00
2023-05-25T18:34:13.119Z,100.00
2023-05-25T18:36:39.644Z,100.00
2023-05-25T18:39:06.063Z,100.00
2023-05-25T18:41:32.561Z,100.00
2023-05-25T18:43:59.012Z,100.00
2023-05-25T18:46:26.449Z,100.00
2023-05-25T18:48:53.046Z,100.00
2023-05-25T18:51:23.002Z,100.00
2023-05-25T18:53:49.440Z,100.00
2023-05-25T18:56:16.015Z,100.00
2023-05-25T18:58:42.441Z,100.00
2023-05-25T19:01:08.939Z,100.00
2023-05-25T19:03:35.671Z,100.00
2023-05-25T19:06:02.215Z,100.00
2023-05-25T19:08:28.628Z,100.00
2023-05-25T19:10:55.082Z,100.00
2023-05-25T19:13:22.821Z,100.00
2023-05-25T19:15:50.328Z,100.00
2023-05-25T19:18:16.900Z,100.00
2023-05-25T19:20:43.440Z,100.00
2023-05-25T19:23:10.004Z,100.00
2023-05-25T19:25:36.494Z,100.00
2023-05-25T19:28:03.010Z,100.00
2023-05-25T19:30:29.448Z,100.00
2023-05-25T19:32:55.963Z,100.00
2023-05-25T19:35:22.401Z,100.00
2023-05-25T19:37:48.869Z,100.00
2023-05-25T19:40:15.615Z,100.00
2023-05-25T19:42:42.116Z,100.00
2023-05-25T19:45:08.855Z,100.00
2023-05-25T19:47:35.517Z,100.00
2023-05-25T19:50:02.058Z,100.00
2023-05-25T19:52:28.477Z,100.00
2023-05-25T19:54:55.033Z,100.00
2023-05-25T19:57:21.540Z,100.00
2023-05-25T19:59:48.088Z,100.00
2023-05-25T20:02:14.647Z,100.00
2023-05-25T20:04:41.437Z,100.00
2023-05-25T20:07:07.879Z,100.00
2023-05-25T20:09:35.604Z,100.00
2023-05-25T20:12:02.456Z,100.00
2023-05-25T20:14:30.163Z,100.00
2023-05-25T20:16:56.833Z,100.00
2023-05-25T20:19:23.332Z,100.00
2023-05-25T20:21:49.867Z,100.00
2023-05-25T20:24:16.384Z,100.00
2023-05-25T20:26:42.859Z,100.00
2023-05-25T20:29:09.407Z,100.00
2023-05-25T20:31:36.011Z,100.00
2023-05-25T20:34:02.507Z,100.00
2023-05-25T20:36:28.950Z,100.00
2023-05-25T20:38:55.406Z,100.00
2023-05-25T20:41:21.880Z,100.00
2023-05-25T20:43:48.811Z,100.00
2023-05-25T20:46:15.384Z,100.00
2023-05-25T20:48:42.337Z,100.00
2023-05-25T20:51:08.794Z,100.00
2023-05-25T20:53:35.410Z,100.00
2023-05-25T20:56:02.026Z,100.00
2023-05-25T20:58:28.488Z,100.00
2023-05-25T21:00:55.005Z,100.00
2023-05-25T21:03:21.682Z,100.00
2023-05-25T21:05:48.263Z,100.00
2023-05-25T21:08:14.827Z,100.00
2023-05-25T21:10:41.491Z,100.00
2023-05-25T21:13:07.931Z,100.00
2023-05-25T21:15:34.555Z,100.00
2023-05-25T21:18:03.165Z,100.00
2023-05-25T21:20:29.735Z,100.00
2023-05-25T21:22:56.505Z,100.00
2023-05-25T21:25:23.068Z,100.00
2023-05-25T21:27:49.496Z,100.00
2023-05-25T21:30:16.379Z,100.00
2023-05-25T21:32:42.841Z,100.00
2023-05-25T21:35:09.309Z,100.00
2023-05-25T21:37:35.837Z,100.00
2023-05-25T21:40:02.403Z,100.00
2023-05-25T21:42:28.978Z,100.00
2023-05-25T21:44:55.518Z,100.00
2023-05-25T21:47:22.137Z,100.00
2023-05-25T21:49:49.069Z,100.00
2023-05-25T21:52:15.855Z,100.00
2023-05-25T21:54:42.337Z,100.00
2023-05-25T21:57:08.774Z,100.00
2023-05-25T21:59:35.227Z,100.00
2023-05-25T22:02:01.690Z,100.00
2023-05-25T22:04:28.101Z,100.00
2023-05-25T22:06:56.881Z,100.00
2023-05-25T22:09:23.363Z,100.00
2023-05-25T22:11:49.741Z,100.00
2023-05-25T22:14:16.173Z,100.00
2023-05-25T22:16:43.003Z,100.00
2023-05-25T22:19:09.452Z,100.00
2023-05-25T22:21:37.260Z,100.00
2023-05-25T22:24:03.893Z,100.00
2023-05-25T22:26:30.955Z,100.00
2023-05-25T22:28:57.452Z,100.00
2023-05-25T22:31:25.661Z,100.00
2023-05-25T22:33:52.194Z,100.00
2023-05-25T22:36:18.672Z,100.00
2023-05-25T22:38:46.063Z,100.00
2023-05-25T22:41:12.764Z,100.00
2023-05-25T22:43:39.231Z,100.00
2023-05-25T22:46:05.775Z,100.00
2023-05-25T22:48:32.197Z,100.00
2023-05-25T22:50:58.618Z,100.00
2023-05-25T22:53:25.014Z,100.00
2023-05-25T22:55:51.563Z,100.00
2023-05-25T22:58:18.313Z,100.00
2023-05-25T23:00:44.737Z,100.00
2023-05-25T23:03:11.184Z,100.00
2023-05-25T23:05:37.748Z,100.00
2023-05-25T23:08:04.140Z,100.00
2023-05-25T23:10:30.761Z,100.00
2023-05-25T23:12:57.408Z,100.00
2023-05-25T23:15:23.837Z,100.00
2023-05-25T23:17:50.291Z,100.00
2023-05-25T23:20:16.849Z,100.00
2023-05-25T23:22:43.346Z,100.00
2023-05-25T23:25:09.922Z,100.00
2023-05-25T23:27:36.549Z,100.00
2023-05-25T23:30:03.092Z,100.00
2023-05-25T23:32:29.611Z,100.00
2023-05-25T23:34:56.808Z,100.00
2023-05-25T23:37:23.208Z,100.00
2023-05-25T23:39:49.742Z,100.00
2023-05-25T23:42:16.953Z,100.00
2023-05-25T23:44:43.393Z,100.00
2023-05-25T23:47:09.803Z,100.00
2023-05-25T23:49:36.486Z,100.00
2023-05-25T23:52:02.899Z,100.00
2023-05-25T23:54:29.321Z,100.00
2023-05-25T23:56:55.928Z,100.00
2023-05-25T23:59:22.307Z,100.00
